Time;durP1;ratioP1;P1;durP2;ratioP2;P2;SDS_P1;SDS_P2;PMS_P1;PMS_P2;Temp;Humidity;BMP_temperature;BMP_pressure;BME280_temperature;BME280_humidity;BME280_pressure;Samples;Min_cycle;Max_cycle;Signal;HPM_P1;HPM_P2
2022/03/13 00:00:27;;;;;;;9.83;6.67;;;;;;;-1.17;53.24;97478.77;1725327;81;20989;-82
2022/03/13 00:02:55;;;;;;;10.48;7.65;;;;;;;-1.18;52.88;97481.41;1748129;81;21073;-82
2022/03/13 00:05:22;;;;;;;9.73;6.72;;;;;;;-1.18;52.94;97476.30;1752322;81;21061;-82
2022/03/13 00:07:50;;;;;;;9.63;7.45;;;;;;;-1.18;53.08;97477.58;1730352;81;21077;-82
2022/03/13 00:10:17;;;;;;;11.12;7.85;;;;;;;-1.18;53.26;97474.58;1757581;81;20984;-82
2022/03/13 00:12:44;;;;;;;9.90;7.50;;;;;;;-1.18;53.17;97472.48;1743973;81;21009;-82
2022/03/13 00:15:12;;;;;;;11.00;8.30;;;;;;;-1.17;53.33;97469.02;1749866;81;21037;-82
2022/03/13 00:17:38;;;;;;;14.68;8.33;;;;;;;-1.16;53.07;97470.22;1753620;81;21099;-81
2022/03/13 00:20:05;;;;;;;12.63;8.88;;;;;;;-1.13;53.05;97471.34;1744086;81;22061;-82
2022/03/13 00:22:32;;;;;;;14.50;7.95;;;;;;;-1.10;53.43;97467.35;1761272;81;20966;-82
2022/03/13 00:25:03;;;;;;;11.65;7.92;;;;;;;-1.04;53.55;97462.36;1754686;81;21004;-82
2022/03/13 00:27:31;;;;;;;12.98;8.78;;;;;;;-1.02;53.72;97465.19;1756283;81;21009;-81
2022/03/13 00:29:59;;;;;;;13.15;8.20;;;;;;;-0.99;53.90;97470.12;1755949;81;21040;-82
2022/03/13 00:32:25;;;;;;;12.10;8.30;;;;;;;-1.01;53.60;97467.29;1745664;81;20937;-82
2022/03/13 00:34:50;;;;;;;11.63;8.33;;;;;;;-1.02;53.55;97469.47;1721695;82;20989;-82
2022/03/13 00:37:17;;;;;;;11.28;7.83;;;;;;;-1.04;53.46;97473.38;1751246;81;21029;-81
2022/03/13 00:39:46;;;;;;;11.18;7.53;;;;;;;-1.06;53.58;97471.37;1750714;82;21037;-81
2022/03/13 00:42:12;;;;;;;11.68;7.90;;;;;;;-1.08;53.51;97472.37;1758874;81;20981;-82
2022/03/13 00:44:39;;;;;;;13.62;9.45;;;;;;;-1.11;53.45;97473.36;1766142;81;21262;-82
2022/03/13 00:47:05;;;;;;;10.35;8.58;;;;;;;-1.12;53.65;97467.89;1768343;81;21010;-82
2022/03/13 00:49:32;;;;;;;11.03;7.30;;;;;;;-1.13;53.22;97462.87;1747698;81;21014;-82
2022/03/13 00:51:59;;;;;;;10.45;8.18;;;;;;;-1.16;53.17;97465.11;1761188;81;20944;-82
2022/03/13 00:54:25;;;;;;;10.88;7.67;;;;;;;-1.15;53.28;97462.11;1769810;81;20963;-81
2022/03/13 00:56:51;;;;;;;12.18;7.47;;;;;;;-1.16;53.17;97457.91;1757442;81;20992;-82
2022/03/13 00:59:17;;;;;;;13.08;8.00;;;;;;;-1.14;53.43;97461.20;1770074;80;21019;-82
2022/03/13 01:01:43;;;;;;;11.70;7.75;;;;;;;-1.14;53.43;97454.83;1738276;82;21017;-82
2022/03/13 01:04:08;;;;;;;12.07;7.72;;;;;;;-1.15;53.29;97459.10;1764989;81;21402;-82
2022/03/13 01:06:34;;;;;;;10.82;7.70;;;;;;;-1.14;53.05;97462.48;1745330;81;21004;-82
2022/03/13 01:09:00;;;;;;;10.40;7.25;;;;;;;-1.15;53.27;97461.66;1741746;82;21051;-82
2022/03/13 01:11:26;;;;;;;10.30;7.60;;;;;;;-1.14;53.37;97456.10;1759009;81;20998;-82
2022/03/13 01:13:51;;;;;;;10.18;6.78;;;;;;;-1.14;53.29;97454.83;1771178;80;23250;-82
2022/03/13 01:16:23;;;;;;;10.65;7.83;;;;;;;-1.16;53.28;97454.91;1759566;80;21027;-82
2022/03/13 01:18:54;;;;;;;12.13;7.55;;;;;;;-1.22;52.93;97438.68;1742204;80;21408;-82
2022/03/13 01:21:19;;;;;;;10.45;7.05;;;;;;;-1.15;52.85;97446.81;1753554;80;21446;-81
2022/03/13 01:24:03;;;;;;;10.65;8.38;;;;;;;-1.16;52.41;97443.89;1736052;81;20960;-82
2022/03/13 01:26:36;;;;;;;11.35;8.45;;;;;;;-1.17;52.27;97447.34;1758080;81;20965;-82
2022/03/13 01:29:09;;;;;;;11.22;7.58;;;;;;;-1.19;52.61;97441.06;1756401;80;20961;-82
2022/03/13 01:31:40;;;;;;;11.45;6.97;;;;;;;-1.19;53.00;97445.34;1770371;81;21065;-81
2022/03/13 01:34:09;;;;;;;8.60;6.58;;;;;;;-1.21;53.06;97436.05;1757883;81;21047;-82
2022/03/13 01:36:35;;;;;;;10.28;7.35;;;;;;;-1.21;53.20;97434.77;1762787;81;20980;-82
2022/03/13 01:39:01;;;;;;;10.88;7.20;;;;;;;-1.22;53.00;97433.13;1752636;81;21447;-82
2022/03/13 01:41:28;;;;;;;9.75;6.62;;;;;;;-1.22;53.31;97432.30;1758654;81;20968;-82
2022/03/13 01:43:58;;;;;;;7.60;6.08;;;;;;;-1.24;53.58;97429.84;1769868;81;21028;-82
2022/03/13 01:46:24;;;;;;;7.87;5.62;;;;;;;-1.25;53.33;97427.38;1763918;81;20936;-82
2022/03/13 01:48:55;;;;;;;10.45;6.45;;;;;;;-1.27;53.40;97423.64;1761867;81;21005;-82
2022/03/13 01:51:21;;;;;;;8.53;6.35;;;;;;;-1.26;53.43;97420.63;1745738;81;21024;-81
2022/03/13 01:53:57;;;;;;;7.65;6.20;;;;;;;-1.26;53.52;97422.73;1741477;81;21439;-82
2022/03/13 01:56:23;;;;;;;7.30;5.58;;;;;;;-1.27;53.46;97414.71;1753998;81;20940;-82
2022/03/13 01:58:54;;;;;;;8.55;6.20;;;;;;;-1.26;53.46;97418.08;1735249;81;20981;-82
2022/03/13 02:01:24;;;;;;;7.83;5.03;;;;;;;-1.26;53.59;97416.36;1756465;81;20932;-82
2022/03/13 02:03:50;;;;;;;9.38;6.50;;;;;;;-1.26;53.69;97413.80;1755960;81;21328;-82
2022/03/13 02:06:16;;;;;;;8.38;5.62;;;;;;;-1.24;53.81;97414.99;1744605;81;21059;-81
2022/03/13 02:08:47;;;;;;;7.20;5.95;;;;;;;-1.22;53.46;97414.00;1749000;81;21100;-82
2022/03/13 02:11:20;;;;;;;8.80;6.25;;;;;;;-1.21;53.60;97418.19;1730216;81;20989;-82
2022/03/13 02:13:48;;;;;;;9.88;6.70;;;;;;;-1.21;53.42;97409.27;1752238;81;20928;-82
2022/03/13 02:16:15;;;;;;;8.00;5.75;;;;;;;-1.19;53.63;97408.36;1758115;81;20952;-82
2022/03/13 02:18:41;;;;;;;10.05;6.62;;;;;;;-1.20;53.56;97401.16;1764758;81;20985;-82
2022/03/13 02:21:09;;;;;;;6.33;5.12;;;;;;;-1.19;53.71;97405.80;1757251;80;21020;-82
2022/03/13 02:23:36;;;;;;;8.28;6.75;;;;;;;-1.19;53.94;97407.08;1749731;81;21014;-82
2022/03/13 02:26:04;;;;;;;8.75;5.45;;;;;;;-1.18;53.75;97407.45;1761506;81;20944;-82
2022/03/13 02:28:33;;;;;;;7.72;5.95;;;;;;;-1.20;53.69;97401.16;1749483;81;20950;-82
2022/03/13 02:31:06;;;;;;;8.13;5.33;;;;;;;-1.21;53.85;97399.06;1752000;81;20947;-82
2022/03/13 02:33:32;;;;;;;7.40;5.65;;;;;;;-1.21;53.95;97402.89;1748522;81;20965;-82
2022/03/13 02:36:04;;;;;;;9.08;5.60;;;;;;;-1.21;53.85;97395.23;1753923;81;20975;-82
2022/03/13 02:38:30;;;;;;;9.35;6.03;;;;;;;-1.21;53.71;97396.97;1719421;83;21045;-82
2022/03/13 02:40:56;;;;;;;7.92;5.47;;;;;;;-1.23;53.78;97395.78;1740333;81;20997;-82
2022/03/13 02:43:22;;;;;;;10.78;6.15;;;;;;;-1.25;53.77;97396.33;1755837;81;21340;-82
2022/03/13 02:45:48;;;;;;;8.15;6.28;;;;;;;-1.25;53.84;97389.95;1747854;81;20961;-82
2022/03/13 02:48:16;;;;;;;8.88;6.33;;;;;;;-1.29;53.77;97385.11;1763556;81;21038;-82
2022/03/13 02:50:42;;;;;;;8.50;5.60;;;;;;;-1.27;54.05;97384.11;1741425;81;21445;-82
2022/03/13 02:53:09;;;;;;;8.03;6.47;;;;;;;-1.27;53.69;97384.11;1755217;81;21034;-82
2022/03/13 02:55:35;;;;;;;10.00;6.33;;;;;;;-1.27;53.60;97380.29;1765451;81;21097;-82
2022/03/13 02:58:00;;;;;;;11.15;7.70;;;;;;;-1.29;53.63;97378.28;1749314;81;21504;-81
2022/03/13 03:00:50;;;;;;;10.68;6.60;;;;;;;-1.28;53.62;97374.00;1758093;81;21037;-82
2022/03/13 03:03:18;;;;;;;8.60;6.60;;;;;;;-1.28;53.41;97389.30;1758193;81;21017;-82
2022/03/13 03:05:44;;;;;;;9.85;7.20;;;;;;;-1.29;53.46;97378.28;1756130;81;20953;-82
2022/03/13 03:08:10;;;;;;;8.95;6.97;;;;;;;-1.30;53.63;97370.72;1754722;81;20989;-82
2022/03/13 03:10:36;;;;;;;9.38;6.40;;;;;;;-1.29;53.66;97374.45;1768371;81;20981;-82
2022/03/13 03:13:02;;;;;;;11.75;7.28;;;;;;;-1.27;53.53;97365.44;1749709;81;20973;-82
2022/03/13 03:15:28;;;;;;;10.75;7.40;;;;;;;-1.27;53.32;97375.19;1748705;81;21081;-82
2022/03/13 03:17:54;;;;;;;10.23;7.92;;;;;;;-1.27;53.49;97372.64;1755265;81;21507;-82
2022/03/13 03:20:21;;;;;;;13.93;8.98;;;;;;;-1.27;53.42;97366.27;1749321;80;21005;-83
2022/03/13 03:22:49;;;;;;;11.30;7.30;;;;;;;-1.26;53.19;97368.36;1755855;81;21377;-82
2022/03/13 03:25:14;;;;;;;11.25;7.50;;;;;;;-1.27;53.06;97374.37;1721412;82;21009;-82
2022/03/13 03:27:40;;;;;;;12.33;8.73;;;;;;;-1.28;53.34;97376.09;1748848;81;20922;-82
2022/03/13 03:30:08;;;;;;;10.03;7.90;;;;;;;-1.30;53.11;97374.09;1747390;81;20918;-82
2022/03/13 03:32:33;;;;;;;11.68;8.60;;;;;;;-1.30;51.98;97379.19;1719040;82;21069;-82
2022/03/13 03:34:59;;;;;;;12.47;8.45;;;;;;;-1.32;51.75;97379.70;1728739;82;21070;-82
2022/03/13 03:37:25;;;;;;;10.90;7.53;;;;;;;-1.32;51.41;97378.87;1744545;81;21475;-82
2022/03/13 03:39:51;;;;;;;10.25;7.83;;;;;;;-1.33;51.74;97374.69;1716385;83;21025;-81
2022/03/13 03:42:16;;;;;;;10.00;7.83;;;;;;;-1.32;51.89;97369.95;1750516;81;21111;-82
2022/03/13 03:44:42;;;;;;;11.45;8.18;;;;;;;-1.33;52.13;97369.59;1747027;81;21360;-82
2022/03/13 03:47:08;;;;;;;13.60;8.90;;;;;;;-1.36;52.58;97360.38;1754852;81;20990;-82
2022/03/13 03:49:34;;;;;;;13.88;8.35;;;;;;;-1.39;52.93;97359.28;1733051;81;20981;-81
2022/03/13 03:52:00;;;;;;;14.68;9.20;;;;;;;-1.40;53.26;97365.74;1747899;81;21060;-82
2022/03/13 03:54:26;;;;;;;12.75;9.13;;;;;;;-1.41;53.51;97362.83;1763167;81;21084;-82
2022/03/13 03:56:51;;;;;;;12.45;8.40;;;;;;;-1.41;53.61;97367.92;1741484;82;20939;-82
2022/03/13 03:59:20;;;;;;;12.75;9.40;;;;;;;-1.41;53.06;97367.47;1763055;81;21039;-81
2022/03/13 04:01:46;;;;;;;16.40;9.20;;;;;;;-1.37;53.46;97365.57;1761563;81;20961;-82
2022/03/13 04:04:12;;;;;;;16.02;9.40;;;;;;;-1.35;53.12;97368.39;1770853;81;21059;-82
2022/03/13 04:06:38;;;;;;;14.10;9.28;;;;;;;-1.36;53.05;97365.48;1754938;81;21351;-82
2022/03/13 04:09:09;;;;;;;11.97;8.35;;;;;;;-1.35;53.04;97365.84;1753516;81;21040;-81
2022/03/13 04:11:35;;;;;;;13.57;8.63;;;;;;;-1.34;53.12;97361.57;1764527;81;21022;-82
2022/03/13 04:14:01;;;;;;;15.60;9.58;;;;;;;-1.37;52.82;97365.57;1760976;81;21656;-82
2022/03/13 04:16:27;;;;;;;11.63;8.15;;;;;;;-1.39;53.14;97373.30;1762384;81;21372;-81
2022/03/13 04:18:54;;;;;;;10.40;7.80;;;;;;;-1.38;53.48;97368.57;1721119;82;21277;-81
2022/03/13 04:21:24;;;;;;;12.33;8.95;;;;;;;-1.35;53.41;97368.39;1768748;81;21001;-82
2022/03/13 04:23:51;;;;;;;11.05;8.28;;;;;;;-1.34;52.93;97369.22;1756983;81;21056;-82
2022/03/13 04:26:17;;;;;;;14.00;9.30;;;;;;;-1.36;52.65;97369.76;1766259;80;21455;-82
2022/03/13 04:28:44;;;;;;;12.30;8.60;;;;;;;-1.39;52.12;97359.28;1769063;81;21346;-82
2022/03/13 04:31:12;;;;;;;12.45;8.05;;;;;;;-1.36;51.96;97359.11;1763073;81;21013;-82
2022/03/13 04:33:37;;;;;;;10.70;7.60;;;;;;;-1.29;51.92;97363.44;1757225;81;21098;-81
2022/03/13 04:36:12;;;;;;;12.93;8.33;;;;;;;-1.27;51.90;97359.89;1751775;81;21063;-82
2022/03/13 04:38:32;;;;;;;16.62;9.05;;;;;;;-1.29;51.70;97363.44;1752380;82;20977;-82
2022/03/13 04:40:57;;;;;;;12.90;9.98;;;;;;;-1.29;51.77;97362.98;1757541;81;21384;-82
2022/03/13 04:43:23;;;;;;;13.70;8.38;;;;;;;-1.28;52.16;97362.07;1756464;81;21330;-82
2022/03/13 04:45:50;;;;;;;11.97;7.78;;;;;;;-1.30;52.58;97358.79;1730220;80;20990;-82
2022/03/13 04:48:17;;;;;;;13.43;8.53;;;;;;;-1.30;52.79;97356.69;1739398;82;20998;-82
2022/03/13 04:50:45;;;;;;;14.98;8.65;;;;;;;-1.33;52.62;97362.75;1738232;82;21003;-82
2022/03/13 04:53:11;;;;;;;13.15;8.88;;;;;;;-1.37;52.55;97359.20;1752744;81;20922;-82
2022/03/13 04:55:37;;;;;;;12.10;8.45;;;;;;;-1.38;52.43;97362.66;1743061;81;20998;-82
2022/03/13 04:58:03;;;;;;;13.05;9.18;;;;;;;-1.42;51.87;97363.28;1757194;81;21276;-82
2022/03/13 05:00:28;;;;;;;12.65;8.93;;;;;;;-1.43;51.97;97364.64;1752018;81;20987;-82
2022/03/13 05:02:55;;;;;;;11.40;8.28;;;;;;;-1.49;52.11;97367.05;1751563;81;21443;-82
2022/03/13 05:05:22;;;;;;;12.43;8.33;;;;;;;-1.49;52.77;97368.78;1751223;82;20981;-82
2022/03/13 05:07:52;;;;;;;13.15;8.23;;;;;;;-1.52;53.21;97368.50;1739750;82;21050;-82
2022/03/13 05:10:20;;;;;;;12.63;7.97;;;;;;;-1.52;53.32;97365.95;1739118;81;21030;-82
2022/03/13 05:12:47;;;;;;;13.90;8.35;;;;;;;-1.54;53.78;97369.86;1750003;82;20907;-82
2022/03/13 05:15:13;;;;;;;13.48;8.43;;;;;;;-1.52;53.93;97377.42;1740658;81;20991;-82
2022/03/13 05:17:39;;;;;;;10.80;8.10;;;;;;;-1.52;54.04;97368.50;1742596;81;20984;-82
2022/03/13 05:20:06;;;;;;;14.90;8.95;;;;;;;-1.52;53.55;97369.77;1743068;81;21072;-81
2022/03/13 05:22:32;;;;;;;11.80;8.10;;;;;;;-1.49;53.36;97376.42;1753485;81;20957;-82
2022/03/13 05:24:58;;;;;;;11.43;7.92;;;;;;;-1.48;53.85;97372.97;1740717;82;21025;-82
2022/03/13 05:27:23;;;;;;;11.20;7.75;;;;;;;-1.47;53.58;97377.16;1757224;81;21333;-82
2022/03/13 05:29:49;;;;;;;12.75;8.53;;;;;;;-1.45;53.81;97372.83;1746682;81;20974;-82
2022/03/13 05:32:15;;;;;;;11.95;7.60;;;;;;;-1.44;53.51;97375.29;1746199;81;21284;-82
2022/03/13 05:34:41;;;;;;;11.33;8.35;;;;;;;-1.38;53.14;97380.50;1755278;81;21005;-82
2022/03/13 05:37:08;;;;;;;13.45;8.50;;;;;;;-1.34;52.95;97377.69;1740785;81;21337;-82
2022/03/13 05:39:35;;;;;;;12.25;8.15;;;;;;;-1.31;52.48;97390.27;1744148;81;21042;-82
2022/03/13 05:42:03;;;;;;;13.70;8.10;;;;;;;-1.30;52.21;97389.39;1737429;80;21007;-81
2022/03/13 05:44:30;;;;;;;12.23;8.85;;;;;;;-1.31;52.10;97391.54;1741600;82;21037;-82
2022/03/13 05:46:55;;;;;;;12.00;8.23;;;;;;;-1.31;52.74;97391.54;1744469;82;20988;-82
2022/03/13 05:49:21;;;;;;;12.45;8.55;;;;;;;-1.29;52.99;97387.66;1740484;82;20989;-82
2022/03/13 05:51:48;;;;;;;13.40;8.68;;;;;;;-1.24;53.19;97391.59;1740368;81;21029;-82
2022/03/13 05:54:15;;;;;;;12.90;8.70;;;;;;;-1.18;53.35;97396.80;1745812;82;22048;-82
2022/03/13 05:56:41;;;;;;;10.78;7.70;;;;;;;-1.19;53.33;97386.68;1727176;82;21085;-82
2022/03/13 05:59:09;;;;;;;11.18;7.35;;;;;;;-1.20;53.78;97383.31;1744481;82;20999;-82
2022/03/13 06:01:35;;;;;;;11.20;7.40;;;;;;;-1.18;53.90;97384.05;1708289;83;21002;-82
2022/03/13 06:04:01;;;;;;;10.60;7.47;;;;;;;-1.15;54.06;97383.87;1741769;82;20965;-82
2022/03/13 06:06:27;;;;;;;10.58;7.53;;;;;;;-1.10;54.14;97390.83;1740162;82;21337;-82
2022/03/13 06:08:52;;;;;;;13.30;7.03;;;;;;;-1.07;54.25;97397.03;1741743;82;20955;-82
2022/03/13 06:11:18;;;;;;;10.85;7.22;;;;;;;-1.08;54.36;97392.02;1746648;82;21390;-83
2022/03/13 06:13:44;;;;;;;12.28;7.30;;;;;;;-1.08;54.04;97397.94;1745253;82;20958;-82
2022/03/13 06:16:10;;;;;;;12.20;7.75;;;;;;;-1.09;53.98;97404.41;1741647;82;20985;-82
2022/03/13 06:18:37;;;;;;;12.23;8.23;;;;;;;-1.09;54.44;97398.85;1739521;82;20980;-82
2022/03/13 06:21:03;;;;;;;14.73;8.33;;;;;;;-1.11;54.43;97400.67;1738416;82;21006;-82
2022/03/13 06:23:29;;;;;;;12.13;7.35;;;;;;;-1.09;54.32;97400.58;1738224;82;21030;-82
2022/03/13 06:25:58;;;;;;;10.40;7.58;;;;;;;-1.08;54.21;97404.77;1744703;82;20982;-82
2022/03/13 06:28:23;;;;;;;12.85;8.43;;;;;;;-1.04;53.53;97404.96;1740762;82;21027;-81
2022/03/13 06:30:49;;;;;;;13.48;8.08;;;;;;;-0.98;53.30;97401.64;1742275;82;21293;-82
2022/03/13 06:33:15;;;;;;;12.18;7.70;;;;;;;-0.89;53.13;97396.91;1718400;82;20974;-82
2022/03/13 06:35:41;;;;;;;315.07;180.37;;;;;;;-0.81;51.64;97406.25;1739066;82;21017;-82
2022/03/13 06:38:07;;;;;;;76.87;48.80;;;;;;;-0.75;52.23;97410.99;1732479;82;21393;-82
2022/03/13 06:40:32;;;;;;;86.08;56.23;;;;;;;-0.72;50.67;97414.64;1736406;82;21028;-82
2022/03/13 06:42:58;;;;;;;25.23;17.17;;;;;;;-0.61;50.00;97413.13;1743397;81;21014;-82
2022/03/13 06:45:24;;;;;;;17.73;11.83;;;;;;;-0.51;50.66;97411.31;1750020;82;21014;-82
2022/03/13 06:47:50;;;;;;;15.45;11.28;;;;;;;-0.51;50.58;97412.13;1693296;83;20958;-82
2022/03/13 06:50:18;;;;;;;18.15;11.55;;;;;;;-0.46;50.35;97411.89;1669291;84;20970;-82
2022/03/13 06:52:45;;;;;;;31.50;22.62;;;;;;;-0.39;49.75;97404.23;1697328;83;21389;-82
2022/03/13 06:55:13;;;;;;;17.23;13.43;;;;;;;-0.32;49.44;97405.08;1717082;83;20991;-82
2022/03/13 06:57:42;;;;;;;20.82;13.58;;;;;;;-0.24;49.41;97401.23;1741073;81;21261;-82
2022/03/13 07:00:10;;;;;;;12.65;8.65;;;;;;;-0.18;48.66;97395.30;1724072;82;21411;-82
2022/03/13 07:02:36;;;;;;;14.50;8.43;;;;;;;-0.12;51.34;97405.63;1751122;82;20943;-82
2022/03/13 07:05:01;;;;;;;10.35;8.08;;;;;;;-0.10;51.18;97410.19;1729824;81;21423;-82
2022/03/13 07:07:27;;;;;;;11.85;7.75;;;;;;;-0.03;52.68;97411.45;1724124;82;21032;-81
2022/03/13 07:09:55;;;;;;;10.28;7.65;;;;;;;0.02;53.17;97405.64;1737742;82;21013;-80
2022/03/13 07:12:20;;;;;;;11.97;7.58;;;;;;;0.09;52.35;97400.97;1739856;82;21017;-80
2022/03/13 07:14:47;;;;;;;10.18;7.78;;;;;;;0.16;52.84;97407.34;1742095;82;20985;-80
2022/03/13 07:17:14;;;;;;;11.48;6.70;;;;;;;0.22;54.03;97410.37;1735404;82;21397;-80
2022/03/13 07:19:43;;;;;;;11.73;7.33;;;;;;;0.36;53.67;97407.44;1740800;82;20981;-80
2022/03/13 07:22:10;;;;;;;11.15;6.55;;;;;;;0.42;52.42;97402.76;1743037;82;21409;-80
2022/03/13 07:24:35;;;;;;;9.85;7.50;;;;;;;0.54;52.51;97405.84;1729772;82;21018;-80
2022/03/13 07:27:01;;;;;;;11.22;7.20;;;;;;;0.58;53.46;97400.90;1728213;82;21005;-80
2022/03/13 07:29:27;;;;;;;17.10;12.07;;;;;;;0.60;52.53;97400.80;1720784;82;21124;-80
2022/03/13 07:31:56;;;;;;;77.80;42.30;;;;;;;0.71;51.85;97402.24;1739103;82;21398;-80
2022/03/13 07:34:21;;;;;;;69.90;40.48;;;;;;;0.86;50.12;97406.86;1743588;80;21002;-80
2022/03/13 07:36:47;;;;;;;139.32;82.90;;;;;;;1.02;49.88;97405.44;1730056;81;21036;-80
2022/03/13 07:39:14;;;;;;;252.75;135.10;;;;;;;1.11;49.14;97405.65;1734764;81;21421;-80
2022/03/13 07:41:40;;;;;;;96.57;51.05;;;;;;;1.24;48.98;97410.81;1733467;80;21238;-79
2022/03/13 07:44:07;;;;;;;44.33;26.70;;;;;;;1.33;49.68;97408.13;1748094;81;21005;-81
2022/03/13 07:46:34;;;;;;;33.18;18.55;;;;;;;1.42;49.73;97408.80;1743851;81;21010;-80
2022/03/13 07:48:59;;;;;;;31.75;19.62;;;;;;;1.48;49.86;97417.37;1747048;81;22032;-80
2022/03/13 07:51:25;;;;;;;31.23;20.40;;;;;;;1.56;50.36;97408.72;1719811;82;21001;-80
2022/03/13 07:53:51;;;;;;;71.82;36.98;;;;;;;1.68;49.63;97409.20;1747984;81;20930;-80
2022/03/13 07:56:16;;;;;;;199.02;105.32;;;;;;;1.83;49.04;97416.80;1747306;81;21001;-80
2022/03/13 07:58:42;;;;;;;91.80;45.33;;;;;;;1.91;49.00;97413.23;1748342;81;21296;-80
2022/03/13 08:01:08;;;;;;;50.75;28.52;;;;;;;1.99;48.18;97413.56;1755928;81;20981;-81
2022/03/13 08:03:38;;;;;;;39.42;25.00;;;;;;;2.07;48.15;97406.97;1755145;81;20977;-80
2022/03/13 08:06:04;;;;;;;33.90;20.92;;;;;;;2.18;48.01;97412.67;1750013;81;21384;-80
2022/03/13 08:08:30;;;;;;;37.93;24.27;;;;;;;2.27;48.07;97421.46;1750484;81;20923;-80
2022/03/13 08:10:57;;;;;;;37.35;22.25;;;;;;;2.32;47.14;97416.39;1739797;81;21084;-79
2022/03/13 08:13:23;;;;;;;38.73;23.00;;;;;;;2.42;47.16;97422.98;1746063;80;21408;-81
2022/03/13 08:15:49;;;;;;;39.33;24.65;;;;;;;2.49;47.40;97418.27;1751135;81;21013;-79
2022/03/13 08:18:15;;;;;;;34.58;23.60;;;;;;;2.56;46.04;97413.86;1756735;81;21024;-78
2022/03/13 08:20:41;;;;;;;38.85;24.20;;;;;;;2.65;46.35;97414.98;1767575;81;21008;-79
2022/03/13 08:23:07;;;;;;;40.73;23.92;;;;;;;2.77;46.16;97410.75;1764702;81;21028;-81
2022/03/13 08:25:32;;;;;;;43.00;27.15;;;;;;;2.89;47.16;97408.11;1751276;80;21008;-78
2022/03/13 08:27:58;;;;;;;43.10;26.57;;;;;;;3.02;46.32;97410.63;1735190;81;21120;-79
2022/03/13 08:30:24;;;;;;;45.50;26.62;;;;;;;3.11;46.88;97409.16;1744251;81;21002;-78
2022/03/13 08:32:50;;;;;;;44.75;27.30;;;;;;;3.21;47.10;97409.66;1734926;81;21368;-79
2022/03/13 08:35:17;;;;;;;40.15;26.33;;;;;;;3.33;45.98;97412.28;1749132;81;21036;-79
2022/03/13 08:37:43;;;;;;;42.88;26.42;;;;;;;3.38;45.36;97413.57;1759382;81;21379;-79
2022/03/13 08:40:11;;;;;;;41.45;27.17;;;;;;;3.48;45.53;97414.55;1747151;81;21057;-79
2022/03/13 08:42:37;;;;;;;44.50;28.12;;;;;;;3.61;45.20;97415.76;1747678;81;21035;-80
2022/03/13 08:45:04;;;;;;;40.28;25.45;;;;;;;3.72;45.73;97411.91;1747776;81;21041;-80
2022/03/13 08:47:31;;;;;;;37.00;23.20;;;;;;;3.80;44.38;97410.89;1748200;80;21457;-80
2022/03/13 08:49:56;;;;;;;44.13;26.65;;;;;;;3.81;43.66;97411.70;1748482;81;21028;-80
2022/03/13 08:52:22;;;;;;;45.08;29.30;;;;;;;3.83;43.91;97413.69;1744515;81;21056;-80
2022/03/13 08:54:48;;;;;;;52.58;33.40;;;;;;;3.91;44.58;97412.20;1753095;81;21068;-79
2022/03/13 08:57:14;;;;;;;50.08;31.75;;;;;;;3.92;44.27;97409.16;1751396;81;21451;-80
2022/03/13 08:59:41;;;;;;;55.98;33.67;;;;;;;3.96;44.07;97409.73;1753885;81;21047;-80
2022/03/13 09:02:07;;;;;;;44.55;27.50;;;;;;;3.98;44.61;97410.44;1764990;81;21355;-80
2022/03/13 09:04:33;;;;;;;54.25;33.50;;;;;;;3.98;43.18;97404.01;1770428;81;21350;-80
2022/03/13 09:06:59;;;;;;;60.03;36.33;;;;;;;3.93;43.72;97406.94;1770318;80;21071;-80
2022/03/13 09:09:25;;;;;;;58.42;35.68;;;;;;;4.02;43.95;97401.08;1754005;81;21044;-80
2022/03/13 09:11:53;;;;;;;56.50;37.53;;;;;;;4.07;43.88;97403.33;1751670;81;21147;-80
2022/03/13 09:14:19;;;;;;;58.58;37.50;;;;;;;4.15;43.95;97409.98;1752001;82;21072;-80
2022/03/13 09:16:45;;;;;;;67.25;42.10;;;;;;;4.24;43.58;97412.33;1755158;81;21045;-80
2022/03/13 09:19:12;;;;;;;68.65;44.00;;;;;;;4.30;44.03;97416.53;1770728;81;21076;-80
2022/03/13 09:21:38;;;;;;;79.87;48.52;;;;;;;4.36;44.32;97415.23;1757471;80;21411;-80
2022/03/13 09:24:07;;;;;;;66.50;40.98;;;;;;;4.37;45.01;97415.11;1763315;81;21286;-80
2022/03/13 09:26:39;;;;;;;55.17;35.30;;;;;;;4.42;44.84;97422.50;1755891;81;21406;-80
2022/03/13 09:29:07;;;;;;;41.80;22.73;;;;;;;4.45;43.62;97414.54;1762494;81;21028;-80
2022/03/13 09:31:33;;;;;;;42.55;25.70;;;;;;;4.44;43.14;97413.72;1760646;80;20997;-80
2022/03/13 09:33:59;;;;;;;52.45;29.52;;;;;;;4.43;41.76;97407.41;1755020;80;21027;-80
2022/03/13 09:36:25;;;;;;;51.73;31.50;;;;;;;4.40;43.39;97416.19;1758856;81;21027;-79
2022/03/13 09:38:52;;;;;;;57.75;36.10;;;;;;;4.46;43.03;97411.84;1747273;80;21002;-80
2022/03/13 09:41:18;;;;;;;55.95;35.73;;;;;;;4.53;44.28;97411.70;1747275;80;21096;-79
2022/03/13 09:43:44;;;;;;;57.17;36.73;;;;;;;4.62;44.45;97413.23;1700397;82;21076;-80
2022/03/13 09:46:10;;;;;;;50.25;32.70;;;;;;;4.66;43.65;97410.77;1694762;82;21408;-80
2022/03/13 09:48:36;;;;;;;46.98;31.40;;;;;;;4.66;43.16;97412.05;1705731;82;21322;-81
2022/03/13 09:51:09;;;;;;;49.20;29.75;;;;;;;4.63;43.46;97403.28;1758510;81;20970;-80
2022/03/13 09:53:31;;;;;;;51.53;31.62;;;;;;;4.64;42.97;97407.02;1699620;82;21009;-80
2022/03/13 09:55:57;;;;;;;48.02;30.45;;;;;;;4.64;42.78;97403.63;1749062;81;21009;-80
2022/03/13 09:58:23;;;;;;;48.45;32.90;;;;;;;4.72;43.39;97397.42;1749226;81;20919;-80
2022/03/13 10:00:48;;;;;;;54.60;34.38;;;;;;;4.86;43.82;97395.84;1733155;81;20982;-80
2022/03/13 10:03:14;;;;;;;51.00;30.25;;;;;;;4.97;42.83;97395.82;1744947;81;20993;-79
2022/03/13 10:05:45;;;;;;;40.05;26.10;;;;;;;5.12;42.85;97390.73;1742045;81;20922;-79
2022/03/13 10:08:12;;;;;;;42.53;26.50;;;;;;;5.36;43.24;97390.50;1748903;81;21415;-80
2022/03/13 10:10:49;;;;;;;47.75;30.15;;;;;;;5.55;42.86;97391.13;1748011;82;20957;-80
2022/03/13 10:13:20;;;;;;;42.67;28.25;;;;;;;5.66;42.01;97391.52;1744394;82;21033;-79
2022/03/13 10:15:48;;;;;;;47.73;28.73;;;;;;;5.83;42.19;97389.66;1742095;82;21451;-79
2022/03/13 10:18:20;;;;;;;46.60;30.37;;;;;;;5.95;42.04;97387.85;1725435;82;21045;-80
2022/03/13 10:20:47;;;;;;;45.08;28.15;;;;;;;6.06;41.49;97383.91;1740262;82;21043;-80
2022/03/13 10:23:18;;;;;;;39.53;26.52;;;;;;;6.19;41.26;97379.83;1746517;81;21050;-80
2022/03/13 10:25:45;;;;;;;35.17;22.15;;;;;;;6.23;40.28;97374.75;1747700;81;21000;-80
2022/03/13 10:28:16;;;;;;;37.73;23.30;;;;;;;6.23;39.32;97376.03;1749470;81;21013;-79
2022/03/13 10:30:42;;;;;;;37.03;23.35;;;;;;;6.21;39.35;97381.33;1719267;82;21002;-81
2022/03/13 10:33:08;;;;;;;35.13;21.68;;;;;;;6.19;39.32;97376.78;1688313;83;21350;-80
2022/03/13 10:35:37;;;;;;;37.38;24.40;;;;;;;6.17;38.02;97378.64;1746505;81;20996;-80
2022/03/13 10:38:20;;;;;;;34.78;21.15;;;;;;;6.18;39.65;97372.56;1745519;82;20969;-80
2022/03/13 10:40:48;;;;;;;;;;;;;;;6.31;36.93;97367.97;1748145;81;21076;-79
2022/03/13 10:43:19;;;;;;;42.40;26.48;;;;;;;6.42;39.44;97367.06;1715520;82;20191;-79
2022/03/13 10:45:49;;;;;;;29.77;20.70;;;;;;;6.55;39.23;97362.48;1735363;83;21026;-79
2022/03/13 10:48:28;;;;;;;35.43;23.55;;;;;;;6.58;38.05;97357.05;1734162;81;20989;-80
2022/03/13 10:51:00;;;;;;;39.48;25.15;;;;;;;6.60;38.42;97355.62;1741879;81;21061;-80
2022/03/13 10:53:27;;;;;;;30.48;20.95;;;;;;;6.69;39.17;97351.44;1692488;83;20999;-79
2022/03/13 10:56:12;;;;;;;30.57;21.10;;;;;;;6.77;38.17;97349.80;1687631;83;21034;-80
2022/03/13 10:58:42;;;;;;;29.30;20.12;;;;;;;6.84;37.84;97348.80;1677319;83;21038;-79
2022/03/13 11:01:19;;;;;;;26.15;16.50;;;;;;;6.90;37.37;97343.91;1686775;83;21456;-79
2022/03/13 11:03:57;;;;;;;29.48;18.73;;;;;;;6.97;35.69;97353.20;1690964;84;20943;-80
2022/03/13 11:06:25;;;;;;;30.77;20.12;;;;;;;6.94;33.68;97348.31;1686813;83;20987;-79
2022/03/13 11:08:54;;;;;;;26.27;16.57;;;;;;;6.94;36.78;97345.73;1691758;83;20974;-79
2022/03/13 11:11:21;;;;;;;33.70;20.30;;;;;;;7.01;35.57;97339.56;1691525;83;21069;-79
2022/03/13 11:13:55;;;;;;;27.75;16.35;;;;;;;7.04;36.16;97337.52;1691944;83;21417;-80
2022/03/13 11:16:27;;;;;;;28.27;17.77;;;;;;;7.18;35.80;97337.11;1673780;83;21334;-80
2022/03/13 11:19:00;;;;;;;27.70;17.25;;;;;;;7.30;36.16;97341.64;1675991;83;21558;-79
2022/03/13 11:21:26;;;;;;;29.25;18.35;;;;;;;7.33;34.72;97339.28;1670164;83;20955;-79
2022/03/13 11:23:52;;;;;;;22.60;15.35;;;;;;;7.37;35.35;97329.80;1665553;85;21041;-80
2022/03/13 11:26:20;;;;;;;27.75;16.40;;;;;;;7.43;35.27;97331.02;1668615;83;20986;-80